createdAt,value
2019-05-22T00:01:21.641Z,2.90
2019-05-22T00:03:52.130Z,2.67
2019-05-22T00:06:26.399Z,3.40
2019-05-22T00:08:56.791Z,2.83
2019-05-22T00:11:25.471Z,2.57
2019-05-22T00:13:55.347Z,2.60
2019-05-22T00:16:24.536Z,3.00
2019-05-22T00:18:53.694Z,2.40
2019-05-22T00:21:22.664Z,2.63
2019-05-22T00:23:52.389Z,2.73
2019-05-22T00:26:21.937Z,3.67
2019-05-22T00:28:51.422Z,3.03
2019-05-22T00:31:20.831Z,4.17
2019-05-22T00:33:50.290Z,4.77
2019-05-22T00:36:19.521Z,4.13
2019-05-22T00:38:48.001Z,3.23
2019-05-22T00:41:18.549Z,3.53
2019-05-22T00:43:49.220Z,2.70
2019-05-22T00:46:19.266Z,3.57
2019-05-22T00:48:47.750Z,5.03
2019-05-22T00:51:36.674Z,3.33
2019-05-22T00:54:09.667Z,2.40
2019-05-22T00:56:55.533Z,2.53
2019-05-22T00:59:46.278Z,2.90
2019-05-22T01:02:19.410Z,2.80
2019-05-22T01:04:49.684Z,2.60
2019-05-22T01:07:18.114Z,2.60
2019-05-22T01:09:48.634Z,3.30
2019-05-22T01:12:26.955Z,3.10
2019-05-22T01:14:58.564Z,3.83
2019-05-22T01:17:29.871Z,2.50
2019-05-22T01:20:00.928Z,2.80
2019-05-22T01:22:30.972Z,2.57
2019-05-22T01:25:00.828Z,3.10
2019-05-22T01:27:30.127Z,3.10
2019-05-22T01:30:00.232Z,3.73
2019-05-22T01:32:37.557Z,3.17
2019-05-22T01:35:07.276Z,3.60
2019-05-22T01:37:37.172Z,3.50
2019-05-22T01:40:15.799Z,3.67
2019-05-22T01:42:45.912Z,3.73
2019-05-22T01:45:16.354Z,4.00
2019-05-22T01:47:52.508Z,4.07
2019-05-22T01:50:24.861Z,4.07
2019-05-22T01:52:55.494Z,3.90
2019-05-22T01:55:24.877Z,4.63
2019-05-22T01:57:53.323Z,4.87
2019-05-22T02:00:22.259Z,5.13
2019-05-22T02:02:52.227Z,5.47
2019-05-22T02:05:20.999Z,5.60
2019-05-22T02:07:49.550Z,5.73
2019-05-22T02:10:21.411Z,5.53
2019-05-22T02:12:54.561Z,5.93
2019-05-22T02:15:24.888Z,6.73
2019-05-22T02:17:56.174Z,7.50
2019-05-22T02:20:25.037Z,6.67
2019-05-22T02:22:54.504Z,6.73
2019-05-22T02:25:23.980Z,8.03
2019-05-22T02:27:53.745Z,6.47
2019-05-22T02:30:24.865Z,7.03
2019-05-22T02:32:55.293Z,6.93
2019-05-22T02:35:24.733Z,7.80
2019-05-22T02:37:53.224Z,7.80
2019-05-22T02:40:25.775Z,7.70
2019-05-22T02:42:54.187Z,7.43
2019-05-22T02:45:23.705Z,8.27
2019-05-22T02:47:53.370Z,9.60
2019-05-22T02:50:22.146Z,11.53
2019-05-22T02:52:50.918Z,15.20
2019-05-22T02:55:19.831Z,11.27
2019-05-22T02:57:49.125Z,12.20
2019-05-22T03:00:19.650Z,13.73
2019-05-22T03:02:54.052Z,16.57
2019-05-22T03:05:24.902Z,19.03
2019-05-22T03:07:54.542Z,16.97
2019-05-22T03:10:24.597Z,24.37
2019-05-22T03:12:53.569Z,19.47
2019-05-22T03:15:24.397Z,22.27
2019-05-22T03:17:55.909Z,23.33
2019-05-22T03:20:25.996Z,22.80
2019-05-22T03:23:14.381Z,26.43
2019-05-22T03:25:44.070Z,23.50
2019-05-22T03:28:13.843Z,26.70
2019-05-22T03:30:44.811Z,23.97
2019-05-22T03:33:14.509Z,24.70
2019-05-22T03:35:47.147Z,24.20
2019-05-22T03:38:17.982Z,25.47
2019-05-22T03:40:47.767Z,28.40
2019-05-22T03:43:28.175Z,24.00
2019-05-22T03:45:59.837Z,28.37
2019-05-22T03:48:36.355Z,27.33
2019-05-22T03:51:13.385Z,24.67
2019-05-22T03:53:43.794Z,23.03
2019-05-22T03:56:13.324Z,26.50
2019-05-22T03:58:41.896Z,20.10
2019-05-22T04:01:11.333Z,27.47
2019-05-22T04:03:40.329Z,22.57
2019-05-22T04:06:10.022Z,22.50
2019-05-22T04:08:39.116Z,24.40
2019-05-22T04:11:10.265Z,23.30
2019-05-22T04:13:38.756Z,23.77
2019-05-22T04:16:09.463Z,22.03
2019-05-22T04:18:39.133Z,23.20
2019-05-22T04:21:07.993Z,23.93
2019-05-22T04:23:38.018Z,25.30
2019-05-22T04:26:09.279Z,23.40
2019-05-22T04:28:41.353Z,28.10
2019-05-22T04:31:09.842Z,26.27
2019-05-22T04:33:38.329Z,29.87
2019-05-22T04:36:10.288Z,30.70
2019-05-22T04:38:39.766Z,35.60
2019-05-22T04:41:10.124Z,30.83
2019-05-22T04:43:38.614Z,31.30
2019-05-22T04:46:08.403Z,33.77
2019-05-22T04:48:37.815Z,38.77
2019-05-22T04:51:21.480Z,34.67
2019-05-22T04:53:49.921Z,35.27
2019-05-22T04:56:18.412Z,43.33
2019-05-22T04:58:47.741Z,41.93
2019-05-22T05:01:17.577Z,39.50
2019-05-22T05:03:47.641Z,39.97
2019-05-22T05:06:17.714Z,43.73
2019-05-22T05:08:46.944Z,41.93
2019-05-22T05:11:15.872Z,40.57
2019-05-22T05:13:44.287Z,36.93
2019-05-22T05:16:12.709Z,37.53
2019-05-22T05:18:41.303Z,39.97
2019-05-22T05:21:09.779Z,33.83
2019-05-22T05:23:38.271Z,31.87
2019-05-22T05:26:06.755Z,38.73
2019-05-22T05:28:35.184Z,30.20
2019-05-22T05:31:03.763Z,30.00
2019-05-22T05:33:36.140Z,27.73
2019-05-22T05:36:05.463Z,26.17
2019-05-22T05:38:38.402Z,31.17
2019-05-22T05:41:07.444Z,24.93
2019-05-22T05:43:36.486Z,29.50
2019-05-22T05:46:05.235Z,28.23
2019-05-22T05:48:35.001Z,29.57
2019-05-22T05:51:09.934Z,27.20
2019-05-22T05:53:58.712Z,28.97
2019-05-22T05:56:29.401Z,29.60
2019-05-22T05:59:00.240Z,34.37
2019-05-22T06:01:30.362Z,35.13
2019-05-22T06:03:59.687Z,32.77
2019-05-22T06:06:34.685Z,34.07
2019-05-22T06:09:05.013Z,39.17
2019-05-22T06:11:48.918Z,37.07
2019-05-22T06:14:20.592Z,41.10
2019-05-22T06:16:53.739Z,40.13
2019-05-22T06:19:23.950Z,50.20
2019-05-22T06:21:53.406Z,44.63
2019-05-22T06:24:37.249Z,43.90
2019-05-22T06:27:08.276Z,46.87
2019-05-22T06:29:48.652Z,50.93
2019-05-22T06:32:37.428Z,44.40
2019-05-22T06:35:07.665Z,43.37
2019-05-22T06:37:42.017Z,43.27
2019-05-22T06:40:11.636Z,54.03
2019-05-22T06:42:43.713Z,45.50
2019-05-22T06:45:12.197Z,45.37
2019-05-22T06:47:40.679Z,48.47
2019-05-22T06:50:09.712Z,47.50
2019-05-22T06:52:38.204Z,48.33
2019-05-22T06:55:07.615Z,45.20
2019-05-22T06:57:36.130Z,42.43
2019-05-22T07:00:14.048Z,43.17
2019-05-22T07:02:38.591Z,41.67
2019-05-22T07:05:07.934Z,41.10
2019-05-22T07:07:37.190Z,38.00
2019-05-22T07:10:06.832Z,40.70
2019-05-22T07:12:35.796Z,38.30
2019-05-22T07:15:08.462Z,37.10
2019-05-22T07:17:39.707Z,35.77
2019-05-22T07:20:11.131Z,34.23
2019-05-22T07:22:39.884Z,36.90
2019-05-22T07:25:09.425Z,31.40
2019-05-22T07:27:38.845Z,35.03
2019-05-22T07:30:10.369Z,36.73
2019-05-22T07:32:38.955Z,35.23
2019-05-22T07:35:08.376Z,36.13
2019-05-22T07:37:42.681Z,35.80
2019-05-22T07:40:12.337Z,34.33
2019-05-22T07:42:40.888Z,33.77
2019-05-22T07:45:10.148Z,35.80
2019-05-22T07:47:39.297Z,30.87
2019-05-22T07:50:08.771Z,31.50
2019-05-22T07:52:37.828Z,29.50
2019-05-22T07:55:06.378Z,31.73
2019-05-22T07:57:36.431Z,33.00
2019-05-22T08:00:06.094Z,28.37
2019-05-22T08:02:40.801Z,30.27
2019-05-22T08:05:09.361Z,26.13
2019-05-22T08:07:40.050Z,26.63
2019-05-22T08:10:13.213Z,26.03
2019-05-22T08:12:42.768Z,26.13
2019-05-22T08:15:12.401Z,24.73
2019-05-22T08:17:40.984Z,30.90
2019-05-22T08:20:11.448Z,28.33
2019-05-22T08:22:40.267Z,26.03
2019-05-22T08:25:09.089Z,24.80
2019-05-22T08:27:39.034Z,24.53
2019-05-22T08:30:08.858Z,21.93
2019-05-22T08:32:38.280Z,23.13
2019-05-22T08:35:09.109Z,23.90
2019-05-22T08:37:39.387Z,21.57
2019-05-22T08:40:10.275Z,21.70
2019-05-22T08:42:39.731Z,21.00
2019-05-22T08:45:09.767Z,21.80
2019-05-22T08:47:38.788Z,24.40
2019-05-22T08:50:09.528Z,26.47
2019-05-22T08:52:40.038Z,24.67
2019-05-22T08:55:10.965Z,24.30
2019-05-22T08:57:40.922Z,25.97
2019-05-22T09:00:12.648Z,27.70
2019-05-22T09:02:41.694Z,23.27
2019-05-22T09:05:10.633Z,25.07
2019-05-22T09:07:39.876Z,22.47
2019-05-22T09:10:08.886Z,24.90
2019-05-22T09:12:37.376Z,25.33
2019-05-22T09:15:07.129Z,23.60
2019-05-22T09:17:36.325Z,22.03
2019-05-22T09:20:09.236Z,21.03
2019-05-22T09:22:41.137Z,21.50
2019-05-22T09:25:12.334Z,20.07
2019-05-22T09:27:41.036Z,21.77
2019-05-22T09:30:09.886Z,19.00
2019-05-22T09:32:38.407Z,19.57
2019-05-22T09:35:06.992Z,18.60
2019-05-22T09:37:36.095Z,19.40
2019-05-22T09:40:06.339Z,19.87
2019-05-22T09:42:36.402Z,18.00
2019-05-22T09:45:08.335Z,19.47
2019-05-22T09:47:38.665Z,20.87
2019-05-22T09:50:09.385Z,19.00
2019-05-22T09:52:38.953Z,19.90
2019-05-22T09:55:08.141Z,18.47
2019-05-22T09:57:37.206Z,19.30
2019-05-22T10:00:08.936Z,19.00
2019-05-22T10:02:37.352Z,20.17
2019-05-22T10:05:08.173Z,18.70
2019-05-22T10:07:36.772Z,19.30
2019-05-22T10:10:06.720Z,22.10
2019-05-22T10:12:35.388Z,22.23
2019-05-22T10:15:06.113Z,23.87
2019-05-22T10:17:36.811Z,25.50
2019-05-22T10:20:07.811Z,27.73
2019-05-22T10:22:36.371Z,26.90
2019-05-22T10:25:15.756Z,27.73
2019-05-22T10:27:37.208Z,25.37
2019-05-22T10:30:12.017Z,28.20
2019-05-22T10:32:40.820Z,26.37
2019-05-22T10:35:11.051Z,23.77
2019-05-22T10:37:40.889Z,25.83
2019-05-22T10:40:12.246Z,25.53
2019-05-22T10:42:44.376Z,24.97
2019-05-22T10:45:11.036Z,25.27
2019-05-22T10:47:40.228Z,27.13
2019-05-22T10:50:09.251Z,25.67
2019-05-22T10:52:38.288Z,24.83
2019-05-22T10:55:08.042Z,26.73
2019-05-22T10:57:40.678Z,25.20
2019-05-22T11:00:09.975Z,26.37
2019-05-22T11:02:38.384Z,26.37
2019-05-22T11:05:08.616Z,24.47
2019-05-22T11:07:37.093Z,25.70
2019-05-22T11:10:07.275Z,24.43
2019-05-22T11:12:36.201Z,26.27
2019-05-22T11:15:07.306Z,25.03
2019-05-22T11:17:36.252Z,30.73
2019-05-22T11:20:07.890Z,26.03
2019-05-22T11:22:37.310Z,26.47
2019-05-22T11:25:08.744Z,24.73
2019-05-22T11:27:37.296Z,25.27
2019-05-22T11:30:07.056Z,25.33
2019-05-22T11:32:35.708Z,25.27
2019-05-22T11:35:07.645Z,23.67
2019-05-22T11:37:37.117Z,23.23
2019-05-22T11:40:08.045Z,26.47
2019-05-22T11:42:38.511Z,27.23
2019-05-22T11:45:10.064Z,26.07
2019-05-22T11:47:39.141Z,25.83
2019-05-22T11:50:09.807Z,27.47
2019-05-22T11:52:38.789Z,26.73
2019-05-22T11:55:09.132Z,28.97
2019-05-22T11:57:39.728Z,27.53
2019-05-22T12:00:09.511Z,29.13
2019-05-22T12:02:39.509Z,29.00
2019-05-22T12:05:10.451Z,26.03
2019-05-22T12:07:40.907Z,28.70
2019-05-22T12:10:10.247Z,29.60
2019-05-22T12:12:38.900Z,25.97
2019-05-22T12:15:08.410Z,28.77
2019-05-22T12:17:39.080Z,26.10
2019-05-22T12:20:09.822Z,25.67
2019-05-22T12:22:38.794Z,26.23
2019-05-22T12:25:10.116Z,25.87
2019-05-22T12:27:39.065Z,27.30
2019-05-22T12:30:08.148Z,27.57
2019-05-22T12:32:37.970Z,26.47
2019-05-22T12:35:07.486Z,24.77
2019-05-22T12:37:36.040Z,24.67
2019-05-22T12:40:07.831Z,25.50
2019-05-22T12:42:37.493Z,23.87
2019-05-22T12:45:08.529Z,23.63
2019-05-22T12:47:37.543Z,22.50
2019-05-22T12:50:08.971Z,24.27
2019-05-22T12:52:39.033Z,22.57
2019-05-22T12:55:07.989Z,22.33
2019-05-22T12:57:36.856Z,23.07
2019-05-22T13:00:08.246Z,23.17
2019-05-22T13:02:42.220Z,24.03
2019-05-22T13:05:14.015Z,23.27
2019-05-22T13:07:40.509Z,21.67
2019-05-22T13:10:09.757Z,21.93
2019-05-22T13:12:38.222Z,21.97
2019-05-22T13:15:10.581Z,22.10
2019-05-22T13:17:39.435Z,21.67
2019-05-22T13:20:12.624Z,19.93
2019-05-22T13:22:47.539Z,20.50
2019-05-22T13:25:17.460Z,20.33
2019-05-22T13:27:45.951Z,20.60
2019-05-22T13:30:17.048Z,20.43
2019-05-22T13:32:46.609Z,21.00
2019-05-22T13:35:17.636Z,19.90
2019-05-22T13:37:46.127Z,21.17
2019-05-22T13:40:27.167Z,21.80
2019-05-22T13:42:46.506Z,20.20
2019-05-22T13:45:28.605Z,21.27
2019-05-22T13:47:47.343Z,22.17
2019-05-22T13:50:17.356Z,21.57
2019-05-22T13:52:46.624Z,21.93
2019-05-22T13:55:15.948Z,22.67
2019-05-22T13:57:44.511Z,23.90
2019-05-22T14:00:15.406Z,23.90
2019-05-22T14:02:43.820Z,22.17
2019-05-22T14:05:14.669Z,22.17
2019-05-22T14:07:43.088Z,22.53
2019-05-22T14:10:11.937Z,22.97
2019-05-22T14:12:41.181Z,23.50
2019-05-22T14:15:10.489Z,23.23
2019-05-22T14:17:39.146Z,22.57
2019-05-22T14:20:08.799Z,24.17
2019-05-22T14:22:37.352Z,24.60
2019-05-22T14:25:07.572Z,26.47
2019-05-22T14:27:41.082Z,27.00
2019-05-22T14:30:08.148Z,27.10
2019-05-22T14:32:37.205Z,27.80
2019-05-22T14:35:06.779Z,27.70
2019-05-22T14:37:35.272Z,26.67
2019-05-22T14:40:05.926Z,28.67
2019-05-22T14:42:34.408Z,26.90
2019-05-22T14:45:02.890Z,26.80
2019-05-22T14:47:31.455Z,24.43
2019-05-22T14:50:00.126Z,25.40
2019-05-22T14:52:29.286Z,25.87
2019-05-22T14:54:57.770Z,25.47
2019-05-22T14:57:26.256Z,24.67
2019-05-22T14:59:54.691Z,24.07
2019-05-22T15:02:23.946Z,25.13
2019-05-22T15:04:52.943Z,23.50
2019-05-22T15:07:21.351Z,25.03
2019-05-22T15:09:49.964Z,24.20
2019-05-22T15:12:18.391Z,24.03
2019-05-22T15:14:46.897Z,24.50
2019-05-22T15:17:31.019Z,23.13
2019-05-22T15:19:46.336Z,22.90
2019-05-22T15:22:16.388Z,23.93
2019-05-22T15:24:45.248Z,23.27
2019-05-22T15:27:14.301Z,23.87
2019-05-22T15:29:43.096Z,23.13
2019-05-22T15:32:12.062Z,22.87
2019-05-22T15:34:40.555Z,23.57
2019-05-22T15:37:10.883Z,21.97
2019-05-22T15:39:40.810Z,23.17
2019-05-22T15:42:11.308Z,23.20
2019-05-22T15:44:40.212Z,21.80
2019-05-22T15:47:09.329Z,21.53
2019-05-22T15:49:41.297Z,22.37
2019-05-22T15:52:13.463Z,18.83
2019-05-22T15:54:42.217Z,18.30
2019-05-22T15:57:12.741Z,18.80
2019-05-22T15:59:41.503Z,18.73
2019-05-22T16:02:10.829Z,17.20
2019-05-22T16:04:41.165Z,17.77
2019-05-22T16:07:10.748Z,18.23
2019-05-22T16:09:39.896Z,18.00
2019-05-22T16:12:10.334Z,17.87
2019-05-22T16:14:39.887Z,18.30
2019-05-22T16:17:09.817Z,18.60
2019-05-22T16:19:39.168Z,18.20
2019-05-22T16:22:09.195Z,19.37
2019-05-22T16:24:39.840Z,19.20
2019-05-22T16:27:10.004Z,20.50
2019-05-22T16:29:39.296Z,17.87
2019-05-22T16:32:10.218Z,17.73
2019-05-22T16:34:41.488Z,18.07
2019-05-22T16:37:10.347Z,18.10
2019-05-22T16:39:39.809Z,17.10
2019-05-22T16:42:09.538Z,17.87
2019-05-22T16:44:38.757Z,16.90
2019-05-22T16:47:08.895Z,15.40
2019-05-22T16:49:38.092Z,16.00
2019-05-22T16:52:08.920Z,14.57
2019-05-22T16:54:40.346Z,15.20
2019-05-22T16:57:10.618Z,14.17
2019-05-22T16:59:40.834Z,14.13
2019-05-22T17:05:38.864Z,12.97
2019-05-22T17:08:18.889Z,13.00
2019-05-22T17:10:49.876Z,12.27
2019-05-22T17:13:19.409Z,13.07
2019-05-22T17:15:47.893Z,12.13
2019-05-22T17:18:18.026Z,11.93
2019-05-22T17:20:47.743Z,11.00
2019-05-22T17:23:17.008Z,11.60
2019-05-22T17:25:46.629Z,10.93
2019-05-22T17:28:17.041Z,11.13
2019-05-22T17:30:46.556Z,10.50
2019-05-22T17:33:15.228Z,10.37
2019-05-22T17:35:44.497Z,10.23
2019-05-22T17:38:13.857Z,10.07
2019-05-22T17:40:42.803Z,10.43
2019-05-22T17:43:13.060Z,10.90
2019-05-22T17:45:43.772Z,10.57
2019-05-22T17:48:14.727Z,9.87
2019-05-22T17:50:44.480Z,11.60
2019-05-22T17:53:13.974Z,11.00
2019-05-22T17:55:42.588Z,11.80
2019-05-22T17:58:12.016Z,10.67
2019-05-22T18:00:42.762Z,11.60
2019-05-22T18:03:11.552Z,11.10
2019-05-22T18:05:40.513Z,11.00
2019-05-22T18:08:10.145Z,10.97
2019-05-22T18:10:40.839Z,11.20
2019-05-22T18:13:10.713Z,10.33
2019-05-22T18:15:39.273Z,11.17
2019-05-22T18:18:09.396Z,9.90
2019-05-22T18:20:43.213Z,10.00
2019-05-22T18:23:09.504Z,10.30
2019-05-22T18:25:38.088Z,9.60
2019-05-22T18:28:07.248Z,8.70
2019-05-22T18:30:37.369Z,9.43
2019-05-22T18:33:06.424Z,8.93
2019-05-22T18:35:35.002Z,10.10
2019-05-22T18:38:05.001Z,10.63
2019-05-22T18:40:33.761Z,8.70
2019-05-22T18:43:02.281Z,8.37
2019-05-22T18:45:31.431Z,8.80
2019-05-22T18:47:59.924Z,8.77
2019-05-22T18:50:28.460Z,9.40
2019-05-22T18:52:57.016Z,9.10
2019-05-22T18:55:25.428Z,10.33
2019-05-22T18:57:54.112Z,10.47
2019-05-22T19:00:24.532Z,10.67
2019-05-22T19:02:53.217Z,10.43
2019-05-22T19:05:25.308Z,9.90
2019-05-22T19:07:53.788Z,10.27
2019-05-22T19:10:22.780Z,11.37
2019-05-22T19:12:51.645Z,9.93
2019-05-22T19:15:20.773Z,10.63
2019-05-22T19:17:49.320Z,10.20
2019-05-22T19:20:18.641Z,9.97
2019-05-22T19:22:59.307Z,10.40
2019-05-22T19:25:18.160Z,10.47
2019-05-22T19:27:46.563Z,10.10
2019-05-22T19:30:17.998Z,10.27
2019-05-22T19:32:46.640Z,10.00
2019-05-22T19:35:15.201Z,9.70
2019-05-22T19:37:44.823Z,9.60
2019-05-22T19:40:13.819Z,11.00
2019-05-22T19:42:42.735Z,10.67
2019-05-22T19:45:12.164Z,11.23
2019-05-22T19:47:46.230Z,10.20
2019-05-22T19:50:23.154Z,11.83
2019-05-22T19:52:46.474Z,9.50
2019-05-22T19:55:18.988Z,9.20
2019-05-22T19:57:47.591Z,10.17
2019-05-22T20:00:16.328Z,10.10
2019-05-22T20:02:44.914Z,10.67
2019-05-22T20:05:13.396Z,10.83
2019-05-22T20:07:41.900Z,9.83
2019-05-22T20:10:11.028Z,11.70
2019-05-22T20:12:40.187Z,12.20
2019-05-22T20:15:09.740Z,12.13
2019-05-22T20:17:38.529Z,13.23
2019-05-22T20:20:08.548Z,11.73
2019-05-22T20:22:37.210Z,10.60
2019-05-22T20:25:07.926Z,10.70
2019-05-22T20:27:36.798Z,10.20
2019-05-22T20:30:10.239Z,11.13
2019-05-22T20:32:39.290Z,10.20
2019-05-22T20:35:10.167Z,9.80
2019-05-22T20:37:39.095Z,15.10
2019-05-22T20:40:08.485Z,11.53
2019-05-22T20:42:37.916Z,11.37
2019-05-22T20:45:08.037Z,12.87
2019-05-22T20:47:39.362Z,11.40
2019-05-22T20:50:10.311Z,10.63
2019-05-22T20:52:40.018Z,12.40
2019-05-22T20:55:09.528Z,11.40
2019-05-22T20:57:38.029Z,12.10
2019-05-22T21:00:09.812Z,12.50
2019-05-22T21:02:40.256Z,11.73
2019-05-22T21:05:11.381Z,12.10
2019-05-22T21:07:46.113Z,12.00
2019-05-22T21:10:16.501Z,12.60
2019-05-22T21:12:46.339Z,12.47
2019-05-22T21:15:16.032Z,11.73
2019-05-22T21:17:44.964Z,12.70
2019-05-22T21:20:15.480Z,11.87
2019-05-22T21:22:45.805Z,11.57
2019-05-22T21:25:14.867Z,12.00
2019-05-22T21:27:43.686Z,12.03
2019-05-22T21:30:14.721Z,11.63
2019-05-22T21:32:43.945Z,13.17
2019-05-22T21:35:13.982Z,13.03
2019-05-22T21:37:42.448Z,13.53
2019-05-22T21:40:12.067Z,14.83
2019-05-22T21:42:41.788Z,13.20
2019-05-22T21:45:11.142Z,14.73
2019-05-22T21:47:41.523Z,15.10
2019-05-22T21:50:11.186Z,15.93
2019-05-22T21:52:40.117Z,13.77
2019-05-22T21:55:11.217Z,14.53
2019-05-22T21:57:40.325Z,14.63
2019-05-22T22:00:12.921Z,15.47
2019-05-22T22:02:45.315Z,16.30
2019-05-22T22:05:15.177Z,16.73
2019-05-22T22:07:44.092Z,18.93
2019-05-22T22:10:13.328Z,17.77
2019-05-22T22:12:42.756Z,18.17
2019-05-22T22:15:12.290Z,17.60
2019-05-22T22:17:42.199Z,18.77
2019-05-22T22:20:12.732Z,16.90
2019-05-22T22:22:42.183Z,18.63
2019-05-22T22:25:11.150Z,15.07
2019-05-22T22:27:39.924Z,16.97
2019-05-22T22:30:32.251Z,18.53
2019-05-22T22:33:04.485Z,16.27
2019-05-22T22:35:34.145Z,15.77
2019-05-22T22:38:03.262Z,14.17
2019-05-22T22:40:31.744Z,16.10
2019-05-22T22:43:03.470Z,15.67
2019-05-22T22:45:39.480Z,17.70
2019-05-22T22:48:08.385Z,15.63
2019-05-22T22:50:38.282Z,17.63
2019-05-22T22:53:08.116Z,17.07
2019-05-22T22:55:39.338Z,15.90
2019-05-22T22:58:17.028Z,16.30
2019-05-22T23:00:45.081Z,15.37
2019-05-22T23:03:18.248Z,15.97
2019-05-22T23:05:49.280Z,15.00
2019-05-22T23:08:20.849Z,15.17
2019-05-22T23:10:49.920Z,14.40
2019-05-22T23:13:19.142Z,11.00
2019-05-22T23:15:48.880Z,13.37
2019-05-22T23:18:32.068Z,12.93
2019-05-22T23:20:59.778Z,14.87
2019-05-22T23:23:27.126Z,15.77
2019-05-22T23:25:55.728Z,16.00
2019-05-22T23:28:34.595Z,17.60
2019-05-22T23:30:56.672Z,17.83
2019-05-22T23:33:26.926Z,18.73
2019-05-22T23:35:55.716Z,17.53
2019-05-22T23:38:24.992Z,17.13
2019-05-22T23:40:55.232Z,18.37
2019-05-22T23:43:24.295Z,15.23
2019-05-22T23:45:52.894Z,12.80
2019-05-22T23:48:23.045Z,15.63
2019-05-22T23:50:52.924Z,16.77
2019-05-22T23:53:23.899Z,16.87
2019-05-22T23:55:53.981Z,19.13
2019-05-22T23:58:23.052Z,22.63
